createdAt,value
2023-04-28T00:00:23.859Z,13.40
2023-04-28T00:02:51.186Z,13.30
2023-04-28T00:05:18.701Z,13.30
2023-04-28T00:07:46.804Z,13.30
2023-04-28T00:10:14.212Z,13.30
2023-04-28T00:12:41.855Z,13.20
2023-04-28T00:15:09.570Z,13.10
2023-04-28T00:17:36.739Z,13.20
2023-04-28T00:20:04.337Z,13.10
2023-04-28T00:22:31.673Z,13.10
2023-04-28T00:24:58.836Z,13.10
2023-04-28T00:27:26.006Z,13.10
2023-04-28T00:29:54.055Z,13.10
2023-04-28T00:32:21.536Z,13.00
2023-04-28T00:34:48.659Z,12.90
2023-04-28T00:37:16.159Z,12.90
2023-04-28T00:39:47.327Z,12.80
2023-04-28T00:42:15.432Z,12.70
2023-04-28T00:44:42.583Z,12.70
2023-04-28T00:47:10.444Z,12.80
2023-04-28T00:49:39.178Z,12.80
2023-04-28T00:52:07.407Z,12.80
2023-04-28T00:54:37.936Z,12.80
2023-04-28T00:57:05.555Z,12.90
2023-04-28T00:59:32.747Z,12.80
2023-04-28T01:02:04.884Z,12.80
2023-04-28T01:04:33.032Z,12.70
2023-04-28T01:07:01.357Z,12.60
2023-04-28T01:09:28.561Z,12.50
2023-04-28T01:11:55.922Z,12.30
2023-04-28T01:14:24.192Z,12.20
2023-04-28T01:16:51.671Z,12.20
2023-04-28T01:19:24.586Z,12.20
2023-04-28T01:21:51.908Z,12.20
2023-04-28T01:24:19.415Z,12.40
2023-04-28T01:26:46.911Z,12.50
2023-04-28T01:29:14.356Z,12.50
2023-04-28T01:31:41.829Z,12.60
2023-04-28T01:34:08.908Z,12.60
2023-04-28T01:36:37.575Z,12.60
2023-04-28T01:39:06.944Z,12.60
2023-04-28T01:41:36.761Z,12.70
2023-04-28T01:44:05.292Z,12.70
2023-04-28T01:46:32.557Z,12.80
2023-04-28T01:49:00.060Z,12.80
2023-04-28T01:51:27.561Z,12.90
2023-04-28T01:53:54.710Z,12.90
2023-04-28T01:56:21.855Z,12.90
2023-04-28T01:58:48.909Z,13.00
2023-04-28T02:01:16.383Z,13.00
2023-04-28T02:03:43.678Z,13.10
2023-04-28T02:06:10.969Z,13.10
2023-04-28T02:08:38.147Z,13.10
2023-04-28T02:11:06.849Z,13.10
2023-04-28T02:13:34.106Z,13.10
2023-04-28T02:16:04.298Z,13.10
2023-04-28T02:18:31.523Z,13.00
2023-04-28T02:20:58.671Z,13.00
2023-04-28T02:23:25.931Z,13.00
2023-04-28T02:26:01.791Z,12.90
2023-04-28T02:28:29.589Z,12.90
2023-04-28T02:31:11.067Z,12.90
2023-04-28T02:33:39.059Z,13.00
2023-04-28T02:36:06.962Z,13.10
2023-04-28T02:38:34.319Z,13.10
2023-04-28T02:41:03.154Z,13.00
2023-04-28T02:43:30.662Z,12.90
2023-04-28T02:45:58.118Z,12.80
2023-04-28T02:48:26.821Z,12.80
2023-04-28T02:50:54.165Z,12.80
2023-04-28T02:53:22.845Z,12.70
2023-04-28T02:55:49.998Z,12.70
2023-04-28T02:58:18.581Z,12.70
2023-04-28T03:00:46.261Z,12.70
2023-04-28T03:03:13.910Z,12.70
2023-04-28T03:05:41.256Z,12.70
2023-04-28T03:08:08.453Z,12.50
2023-04-28T03:10:37.095Z,12.50
2023-04-28T03:13:04.142Z,12.40
2023-04-28T03:15:31.442Z,12.40
2023-04-28T03:17:59.218Z,12.40
2023-04-28T03:20:26.417Z,12.30
2023-04-28T03:22:53.653Z,12.20
2023-04-28T03:25:20.893Z,12.30
2023-04-28T03:27:47.931Z,12.20
2023-04-28T03:30:15.208Z,12.20
2023-04-28T03:32:42.333Z,12.10
2023-04-28T03:35:09.998Z,12.10
2023-04-28T03:37:37.073Z,12.10
2023-04-28T03:40:04.462Z,12.10
2023-04-28T03:42:31.627Z,12.20
2023-04-28T03:44:58.755Z,12.10
2023-04-28T03:47:27.195Z,12.10
2023-04-28T03:49:54.294Z,12.10
2023-04-28T03:52:21.494Z,12.10
2023-04-28T03:54:49.154Z,12.20
2023-04-28T03:57:16.303Z,12.10
2023-04-28T03:59:43.456Z,12.00
2023-04-28T04:02:10.920Z,11.80
2023-04-28T04:04:38.274Z,11.80
2023-04-28T04:07:05.533Z,11.80
2023-04-28T04:09:32.779Z,11.50
2023-04-28T04:12:01.401Z,11.60
2023-04-28T04:14:28.502Z,11.40
2023-04-28T04:16:55.806Z,11.30
2023-04-28T04:19:24.334Z,11.40
2023-04-28T04:21:51.541Z,11.60
2023-04-28T04:24:19.092Z,11.50
2023-04-28T04:26:46.358Z,11.60
2023-04-28T04:29:13.498Z,11.60
2023-04-28T04:31:41.198Z,11.60
2023-04-28T04:34:08.358Z,11.60
2023-04-28T04:36:35.506Z,11.70
2023-04-28T04:39:04.500Z,11.40
2023-04-28T04:41:31.655Z,11.30
2023-04-28T04:43:58.747Z,11.10
2023-04-28T04:49:06.765Z,11.00
2023-04-28T04:51:33.918Z,11.20
2023-04-28T04:54:01.119Z,11.30
2023-04-28T04:56:28.313Z,11.30
2023-04-28T04:58:55.735Z,11.40
2023-04-28T05:01:23.021Z,11.40
2023-04-28T05:03:50.384Z,11.40
2023-04-28T05:06:17.528Z,11.60
2023-04-28T05:08:44.698Z,11.70
2023-04-28T05:11:12.008Z,11.70
2023-04-28T05:13:40.872Z,11.90
2023-04-28T05:16:08.269Z,12.10
2023-04-28T05:18:35.395Z,12.20
2023-04-28T05:21:02.488Z,12.20
2023-04-28T05:23:29.632Z,12.40
2023-04-28T05:25:56.836Z,12.40
2023-04-28T05:28:23.961Z,12.50
2023-04-28T05:30:51.124Z,12.60
2023-04-28T05:33:18.736Z,12.70
2023-04-28T05:35:46.049Z,12.50
2023-04-28T05:38:13.210Z,12.60
2023-04-28T05:40:40.338Z,12.70
2023-04-28T05:43:07.430Z,12.70
2023-04-28T05:45:35.319Z,12.80
2023-04-28T05:48:03.057Z,12.80
2023-04-28T05:50:30.225Z,12.90
2023-04-28T05:52:57.568Z,13.00
2023-04-28T05:55:24.746Z,13.00
2023-04-28T05:57:53.440Z,13.20
2023-04-28T06:00:22.078Z,13.20
2023-04-28T06:02:49.497Z,13.40
2023-04-28T06:05:17.115Z,13.50
2023-04-28T06:07:44.829Z,13.60
2023-04-28T06:10:12.272Z,13.60
2023-04-28T06:12:39.782Z,13.70
2023-04-28T06:15:07.501Z,13.90
2023-04-28T06:17:35.023Z,14.00
2023-04-28T06:20:02.202Z,14.20
2023-04-28T06:22:29.407Z,14.40
2023-04-28T06:24:56.519Z,14.30
2023-04-28T06:27:23.600Z,14.00
2023-04-28T06:29:51.718Z,14.10
2023-04-28T06:32:18.891Z,14.00
2023-04-28T06:34:45.976Z,14.00
2023-04-28T06:37:13.064Z,14.20
2023-04-28T06:39:40.266Z,14.20
2023-04-28T06:42:07.463Z,14.20
2023-04-28T06:44:36.311Z,14.30
2023-04-28T06:47:04.153Z,14.20
2023-04-28T06:49:31.512Z,14.20
2023-04-28T06:51:58.675Z,14.30
2023-04-28T06:54:25.886Z,14.30
2023-04-28T06:56:53.084Z,14.40
2023-04-28T06:59:20.143Z,14.40
2023-04-28T07:01:47.420Z,14.50
2023-04-28T07:04:15.010Z,14.50
2023-04-28T07:06:42.392Z,14.60
2023-04-28T07:09:09.643Z,14.90
2023-04-28T07:11:36.792Z,15.20
2023-04-28T07:14:04.248Z,15.20
2023-04-28T07:16:31.458Z,15.30
2023-04-28T07:18:58.816Z,15.30
2023-04-28T07:21:26.261Z,15.40
2023-04-28T07:23:54.229Z,15.40
2023-04-28T07:26:21.800Z,15.60
2023-04-28T07:28:49.100Z,15.70
2023-04-28T07:31:16.198Z,15.80
2023-04-28T07:33:43.393Z,15.90
2023-04-28T07:36:10.766Z,15.90
2023-04-28T07:38:38.013Z,16.10
2023-04-28T07:41:07.707Z,16.10
2023-04-28T07:43:37.212Z,16.10
2023-04-28T07:46:04.622Z,16.30
2023-04-28T07:48:32.841Z,16.10
2023-04-28T07:51:00.070Z,16.30
2023-04-28T07:53:27.531Z,16.50
2023-04-28T07:55:56.137Z,16.50
2023-04-28T07:58:23.377Z,16.40
2023-04-28T08:00:50.533Z,16.50
2023-04-28T08:03:17.967Z,16.80
2023-04-28T08:05:46.853Z,16.90
2023-04-28T08:08:14.137Z,17.00
2023-04-28T08:10:44.045Z,17.10
2023-04-28T08:13:11.146Z,17.10
2023-04-28T08:15:38.281Z,17.10
2023-04-28T08:18:05.687Z,17.10
2023-04-28T08:20:32.949Z,16.80
2023-04-28T08:23:00.397Z,16.90
2023-04-28T08:25:27.800Z,17.10
2023-04-28T08:27:57.340Z,17.10
2023-04-28T08:30:25.331Z,17.20
2023-04-28T08:32:52.716Z,17.00
2023-04-28T08:35:19.838Z,17.10
2023-04-28T08:37:49.730Z,17.20
2023-04-28T08:40:16.945Z,17.30
2023-04-28T08:42:46.620Z,17.20
2023-04-28T08:45:15.138Z,17.40
2023-04-28T08:47:46.214Z,17.50
2023-04-28T08:50:14.409Z,17.70
2023-04-28T08:52:43.401Z,17.90
2023-04-28T08:55:13.057Z,18.00
2023-04-28T08:58:01.087Z,18.20
2023-04-28T09:00:28.953Z,18.30
2023-04-28T09:02:56.232Z,18.30
2023-04-28T09:05:23.784Z,18.20
2023-04-28T09:07:52.426Z,18.20
2023-04-28T09:10:24.082Z,18.30
2023-04-28T09:12:56.166Z,18.10
2023-04-28T09:15:27.060Z,18.00
2023-04-28T09:17:54.730Z,17.90
2023-04-28T09:20:29.801Z,18.30
2023-04-28T09:23:12.727Z,18.30
2023-04-28T09:25:39.990Z,18.30
2023-04-28T09:28:23.200Z,18.30
2023-04-28T09:30:50.403Z,18.20
2023-04-28T09:33:17.633Z,18.20
2023-04-28T09:35:48.758Z,18.30
2023-04-28T09:38:16.837Z,18.30
2023-04-28T09:40:50.434Z,18.30
2023-04-28T09:43:31.851Z,18.40
2023-04-28T09:46:06.098Z,18.30
2023-04-28T09:48:38.369Z,18.20
2023-04-28T09:51:09.491Z,18.00
2023-04-28T09:53:37.151Z,18.10
2023-04-28T09:56:08.407Z,18.10
2023-04-28T09:58:40.609Z,18.20
2023-04-28T10:01:11.954Z,18.30
2023-04-28T10:03:41.549Z,18.50
2023-04-28T10:06:08.869Z,18.80
2023-04-28T10:08:36.328Z,18.80
2023-04-28T10:11:03.937Z,19.00
2023-04-28T10:13:32.720Z,19.00
2023-04-28T10:16:00.726Z,18.90
2023-04-28T10:18:29.681Z,18.80
2023-04-28T10:21:00.328Z,18.70
2023-04-28T10:23:30.444Z,18.90
2023-04-28T10:26:00.973Z,18.90
2023-04-28T10:28:28.272Z,19.10
2023-04-28T10:31:16.231Z,19.30
2023-04-28T10:33:44.022Z,18.80
2023-04-28T10:36:11.984Z,18.70
2023-04-28T10:39:14.620Z,18.80
2023-04-28T10:41:42.129Z,19.10
2023-04-28T10:44:31.189Z,19.40
2023-04-28T10:47:09.944Z,19.50
2023-04-28T10:49:58.150Z,19.20
2023-04-28T10:52:38.060Z,19.40
2023-04-28T10:55:27.286Z,19.50
2023-04-28T10:58:13.064Z,19.20
2023-04-28T11:00:40.421Z,19.10
2023-04-28T11:03:07.762Z,19.50
2023-04-28T11:05:35.894Z,19.80
2023-04-28T11:08:33.473Z,19.90
2023-04-28T11:11:21.203Z,19.70
2023-04-28T11:13:49.257Z,19.70
2023-04-28T11:16:26.418Z,19.60
2023-04-28T11:18:59.478Z,19.60
2023-04-28T11:21:32.581Z,19.90
2023-04-28T11:23:59.909Z,19.90
2023-04-28T11:26:28.555Z,19.70
2023-04-28T11:28:58.941Z,19.60
2023-04-28T11:31:26.877Z,19.80
2023-04-28T11:33:59.985Z,20.00
2023-04-28T11:36:29.960Z,20.20
2023-04-28T11:38:57.500Z,20.30
2023-04-28T11:41:25.024Z,20.30
2023-04-28T11:43:52.251Z,20.00
2023-04-28T11:46:24.484Z,20.00
2023-04-28T11:49:02.940Z,20.40
2023-04-28T11:51:32.862Z,20.90
2023-04-28T11:54:01.139Z,21.30
2023-04-28T11:56:29.058Z,21.30
2023-04-28T11:59:04.801Z,21.40
2023-04-28T12:01:33.333Z,21.50
2023-04-28T12:04:00.919Z,21.50
2023-04-28T12:06:31.264Z,21.50
2023-04-28T12:09:02.974Z,21.40
2023-04-28T12:11:30.273Z,21.30
2023-04-28T12:14:04.719Z,21.30
2023-04-28T12:16:40.355Z,21.30
2023-04-28T12:19:10.514Z,21.20
2023-04-28T12:21:40.796Z,21.20
2023-04-28T12:24:36.148Z,21.10
2023-04-28T12:27:17.312Z,21.00
2023-04-28T12:29:46.949Z,20.90
2023-04-28T12:32:14.980Z,21.00
2023-04-28T12:34:43.692Z,21.00
2023-04-28T12:37:10.943Z,21.30
2023-04-28T12:39:40.712Z,21.30
2023-04-28T12:42:08.227Z,21.80
2023-04-28T12:44:38.946Z,21.90
2023-04-28T12:47:11.346Z,22.20
2023-04-28T12:49:39.234Z,22.50
2023-04-28T12:52:07.256Z,22.30
2023-04-28T12:54:34.425Z,22.10
2023-04-28T12:57:03.303Z,22.10
2023-04-28T12:59:31.879Z,22.00
2023-04-28T13:01:59.168Z,21.70
2023-04-28T13:04:26.734Z,21.80
2023-04-28T13:06:54.658Z,21.60
2023-04-28T13:09:21.968Z,21.40
2023-04-28T13:11:49.267Z,21.40
2023-04-28T13:14:16.468Z,21.40
2023-04-28T13:16:43.822Z,21.30
2023-04-28T13:19:14.106Z,21.10
2023-04-28T13:21:47.378Z,21.20
2023-04-28T13:24:14.595Z,21.10
2023-04-28T13:26:41.909Z,21.50
2023-04-28T13:29:09.572Z,21.40
2023-04-28T13:31:36.944Z,21.50
2023-04-28T13:34:05.613Z,21.60
2023-04-28T13:36:33.528Z,21.70
2023-04-28T13:39:02.322Z,21.60
2023-04-28T13:41:30.001Z,21.40
2023-04-28T13:43:57.111Z,21.30
2023-04-28T13:46:24.657Z,21.50
2023-04-28T13:48:51.873Z,21.40
2023-04-28T13:51:19.104Z,21.50
2023-04-28T13:53:46.960Z,21.30
2023-04-28T13:56:14.123Z,21.50
2023-04-28T13:58:41.795Z,21.60
2023-04-28T14:01:09.319Z,21.90
2023-04-28T14:03:37.763Z,22.00
2023-04-28T14:06:05.179Z,22.00
2023-04-28T14:08:32.832Z,21.70
2023-04-28T14:11:00.195Z,22.20
2023-04-28T14:13:27.438Z,22.60
2023-04-28T14:15:59.067Z,22.70
2023-04-28T14:18:27.583Z,22.60
2023-04-28T14:20:55.349Z,22.50
2023-04-28T14:23:23.490Z,22.40
2023-04-28T14:25:55.750Z,22.30
2023-04-28T14:28:23.346Z,22.30
2023-04-28T14:30:50.848Z,22.40
2023-04-28T14:33:18.117Z,22.30
2023-04-28T14:35:45.308Z,22.10
2023-04-28T14:38:14.126Z,22.20
2023-04-28T14:40:43.201Z,22.70
2023-04-28T14:43:10.318Z,22.50
2023-04-28T14:45:38.456Z,22.40
2023-04-28T14:48:07.834Z,22.40
2023-04-28T14:50:35.274Z,22.80
2023-04-28T14:53:07.250Z,22.80
2023-04-28T14:55:34.689Z,22.70
2023-04-28T14:58:03.138Z,22.60
2023-04-28T15:00:31.144Z,22.50
2023-04-28T15:02:58.680Z,22.90
2023-04-28T15:05:26.013Z,23.20
2023-04-28T15:07:53.051Z,23.70
2023-04-28T15:10:20.261Z,23.40
2023-04-28T15:12:49.099Z,23.30
2023-04-28T15:15:16.460Z,23.40
2023-04-28T15:17:43.966Z,23.20
2023-04-28T15:20:11.716Z,23.40
2023-04-28T15:22:38.970Z,23.50
2023-04-28T15:25:07.110Z,23.10
2023-04-28T15:27:34.202Z,23.30
2023-04-28T15:30:01.761Z,23.80
2023-04-28T15:32:30.431Z,24.00
2023-04-28T15:34:57.951Z,24.00
2023-04-28T15:37:52.328Z,24.30
2023-04-28T15:40:20.348Z,24.20
2023-04-28T15:42:55.230Z,24.20
2023-04-28T15:45:23.108Z,23.80
2023-04-28T15:47:51.147Z,23.50
2023-04-28T15:50:20.200Z,23.80
2023-04-28T15:52:49.305Z,23.90
2023-04-28T15:55:18.615Z,23.80
2023-04-28T15:57:46.947Z,23.50
2023-04-28T16:00:15.946Z,22.90
2023-04-28T16:02:44.230Z,22.50
2023-04-28T16:05:11.927Z,22.60
2023-04-28T16:07:41.419Z,22.60
2023-04-28T16:10:16.874Z,22.20
2023-04-28T16:12:44.384Z,22.20
2023-04-28T16:15:13.407Z,22.20
2023-04-28T16:17:41.911Z,22.50
2023-04-28T16:20:10.293Z,22.50
2023-04-28T16:22:38.071Z,22.50
2023-04-28T16:25:05.966Z,22.40
2023-04-28T16:27:33.582Z,22.50
2023-04-28T16:30:01.321Z,22.30
2023-04-28T16:32:29.086Z,22.10
2023-04-28T16:34:59.832Z,21.90
2023-04-28T16:37:26.994Z,22.00
2023-04-28T16:39:54.634Z,22.00
2023-04-28T16:42:22.909Z,21.70
2023-04-28T16:44:52.733Z,21.60
2023-04-28T16:47:20.822Z,21.50
2023-04-28T16:49:48.659Z,21.40
2023-04-28T16:52:16.990Z,21.20
2023-04-28T16:54:44.247Z,21.20
2023-04-28T16:57:11.550Z,21.10
2023-04-28T16:59:38.848Z,20.90
2023-04-28T17:09:15.780Z,20.80
2023-04-28T17:11:43.002Z,20.90
2023-04-28T17:14:10.177Z,20.90
2023-04-28T17:16:38.331Z,21.00
2023-04-28T17:19:08.221Z,21.00
2023-04-28T17:21:35.469Z,20.90
2023-04-28T17:24:03.052Z,20.80
2023-04-28T17:26:31.294Z,20.70
2023-04-28T17:28:59.215Z,20.70
2023-04-28T17:31:27.373Z,20.70
2023-04-28T17:33:56.686Z,20.80
2023-04-28T17:36:26.192Z,20.70
2023-04-28T17:38:54.071Z,20.60
2023-04-28T17:41:21.683Z,20.60
2023-04-28T17:43:49.273Z,20.30
2023-04-28T17:46:16.596Z,20.00
2023-04-28T17:48:44.103Z,19.80
2023-04-28T17:51:11.237Z,19.50
2023-04-28T17:53:38.904Z,19.30
2023-04-28T17:56:06.425Z,19.10
2023-04-28T17:58:33.966Z,19.00
2023-04-28T18:01:05.828Z,18.90
2023-04-28T18:03:35.390Z,18.80
2023-04-28T18:06:02.807Z,18.70
2023-04-28T18:08:29.880Z,18.60
2023-04-28T18:10:58.220Z,18.50
2023-04-28T18:13:25.260Z,18.40
2023-04-28T18:15:52.658Z,18.30
2023-04-28T18:18:20.046Z,18.20
2023-04-28T18:20:47.991Z,18.00
2023-04-28T18:23:15.249Z,17.90
2023-04-28T18:25:42.454Z,17.90
2023-04-28T18:28:10.617Z,17.80
2023-04-28T18:30:40.626Z,17.80
2023-04-28T18:33:08.760Z,17.70
2023-04-28T18:35:39.651Z,17.60
2023-04-28T18:38:06.942Z,17.50
2023-04-28T18:40:34.513Z,17.50
2023-04-28T18:43:02.469Z,17.40
2023-04-28T18:45:37.598Z,17.30
2023-04-28T18:48:06.653Z,17.10
2023-04-28T18:50:34.162Z,16.80
2023-04-28T18:53:08.788Z,16.70
2023-04-28T18:55:36.144Z,16.50
2023-04-28T18:58:04.226Z,16.50
2023-04-28T19:00:34.629Z,16.50
2023-04-28T19:03:07.076Z,16.30
2023-04-28T19:05:34.667Z,15.70
2023-04-28T19:08:01.770Z,15.40
2023-04-28T19:10:28.957Z,15.20
2023-04-28T19:12:56.322Z,15.30
2023-04-28T19:15:23.978Z,15.40
2023-04-28T19:17:52.075Z,15.50
2023-04-28T19:20:19.566Z,15.50
2023-04-28T19:22:47.334Z,15.50
2023-04-28T19:25:15.450Z,15.50
2023-04-28T19:27:46.238Z,15.50
2023-04-28T19:30:14.829Z,15.60
2023-04-28T19:32:42.718Z,15.70
2023-04-28T19:35:10.396Z,15.60
